Time;durP1;ratioP1;P1;durP2;ratioP2;P2;SDS_P1;SDS_P2;PMS_P1;PMS_P2;Temp;Humidity;BMP_temperature;BMP_pressure;BME280_temperature;BME280_humidity;BME280_pressure;Samples;Min_cycle;Max_cycle;Signal;HPM_P1;HPM_P2
2022/02/20 00:00:54;;;;;;;8.13;2.13;;;;;;;;;;5052108;28;20048;-63
2022/02/20 00:03:20;;;;;;;6.75;2.53;;;;;;;;;;5048386;28;20056;-63
2022/02/20 00:05:46;;;;;;;5.55;2.10;;;;;;;;;;5041131;28;20052;-63
2022/02/20 00:08:12;;;;;;;11.18;2.67;;;;;;;;;;5061305;28;20068;-62
2022/02/20 00:10:39;;;;;;;11.10;2.63;;;;;;;;;;5055078;28;20044;-62
2022/02/20 00:13:05;;;;;;;9.02;2.97;;;;;;;;;;5055452;28;20041;-63
2022/02/20 00:15:33;;;;;;;5.43;2.38;;;;;;;;;;5053956;28;20481;-63
2022/02/20 00:18:01;;;;;;;10.00;2.42;;;;;;;;;;5055000;28;20043;-62
2022/02/20 00:20:30;;;;;;;9.43;2.80;;;;;;;;;;5056661;28;20116;-62
2022/02/20 00:22:56;;;;;;;8.20;3.15;;;;;;;;;;5057134;28;20053;-62
2022/02/20 00:25:23;;;;;;;9.68;3.22;;;;;;;;;;5054451;28;20393;-62
2022/02/20 00:27:50;;;;;;;6.82;3.13;;;;;;;;;;5050529;28;20497;-63
2022/02/20 00:30:17;;;;;;;8.10;3.58;;;;;;;;;;5056107;28;20152;-63
2022/02/20 00:32:43;;;;;;;5.18;2.83;;;;;;;;;;5052620;28;20044;-63
2022/02/20 00:35:10;;;;;;;6.45;3.25;;;;;;;;;;5054250;28;20133;-63
2022/02/20 00:37:36;;;;;;;8.23;3.67;;;;;;;;;;5057615;28;20041;-62
2022/02/20 00:40:03;;;;;;;6.80;3.40;;;;;;;;;;5054585;28;20106;-62
2022/02/20 00:42:29;;;;;;;9.45;4.88;;;;;;;;;;5053545;28;20037;-63
2022/02/20 00:44:55;;;;;;;8.88;3.28;;;;;;;;;;5051304;28;20401;-63
2022/02/20 00:47:21;;;;;;;6.90;4.30;;;;;;;;;;5044805;28;20322;-63
2022/02/20 00:49:47;;;;;;;6.90;4.18;;;;;;;;;;5057277;28;20045;-63
2022/02/20 00:52:13;;;;;;;7.38;5.00;;;;;;;;;;5056328;28;20389;-63
2022/02/20 00:54:39;;;;;;;5.70;2.95;;;;;;;;;;5057773;28;20417;-63
2022/02/20 00:57:06;;;;;;;6.53;3.33;;;;;;;;;;5057348;28;20481;-62
2022/02/20 00:59:32;;;;;;;5.95;3.33;;;;;;;;;;5053941;28;20087;-63
2022/02/20 01:01:58;;;;;;;7.30;3.55;;;;;;;;;;5051838;28;20054;-62
2022/02/20 01:04:27;;;;;;;6.03;3.45;;;;;;;;;;5057082;28;20476;-62
2022/02/20 01:06:53;;;;;;;5.82;3.72;;;;;;;;;;5053771;28;20487;-63
2022/02/20 01:09:19;;;;;;;7.30;3.17;;;;;;;;;;5056638;28;20545;-63
2022/02/20 01:11:45;;;;;;;5.82;2.42;;;;;;;;;;5031015;28;20049;-63
2022/02/20 01:14:11;;;;;;;6.53;3.15;;;;;;;;;;5049455;28;20189;-63
2022/02/20 01:16:38;;;;;;;6.93;4.55;;;;;;;;;;5053906;28;20052;-63
2022/02/20 01:19:04;;;;;;;5.05;2.92;;;;;;;;;;5045992;28;20045;-63
2022/02/20 01:21:30;;;;;;;5.47;3.17;;;;;;;;;;5037737;28;20094;-63
2022/02/20 01:23:56;;;;;;;5.45;3.55;;;;;;;;;;5044073;28;20041;-62
2022/02/20 01:26:22;;;;;;;5.07;3.45;;;;;;;;;;5038992;28;20046;-62
2022/02/20 01:28:48;;;;;;;6.05;3.30;;;;;;;;;;5040638;28;20049;-62
2022/02/20 01:31:15;;;;;;;5.57;3.65;;;;;;;;;;5050688;28;20412;-63
2022/02/20 01:33:41;;;;;;;6.82;3.20;;;;;;;;;;5047976;28;20462;-63
2022/02/20 01:36:08;;;;;;;7.82;3.22;;;;;;;;;;5049923;28;20041;-63
2022/02/20 01:38:34;;;;;;;4.10;2.75;;;;;;;;;;5052599;28;20057;-63
2022/02/20 01:41:00;;;;;;;4.13;2.75;;;;;;;;;;5048530;28;20044;-63
2022/02/20 01:43:26;;;;;;;4.53;2.20;;;;;;;;;;5051911;28;20134;-63
2022/02/20 01:45:54;;;;;;;3.80;2.30;;;;;;;;;;5047621;28;20468;-62
2022/02/20 01:48:20;;;;;;;5.82;2.88;;;;;;;;;;5041061;28;20093;-63
2022/02/20 01:50:47;;;;;;;5.28;2.70;;;;;;;;;;5048026;28;20060;-63
2022/02/20 01:53:13;;;;;;;5.38;3.15;;;;;;;;;;5048661;28;20055;-62
2022/02/20 01:55:40;;;;;;;6.88;2.65;;;;;;;;;;5049413;28;20048;-63
2022/02/20 01:58:06;;;;;;;4.82;2.50;;;;;;;;;;5050235;28;20153;-63
2022/02/20 02:00:32;;;;;;;8.18;2.80;;;;;;;;;;5043847;28;20111;-63
2022/02/20 02:02:58;;;;;;;4.50;2.53;;;;;;;;;;5050803;28;20507;-63
2022/02/20 02:05:26;;;;;;;8.13;2.80;;;;;;;;;;5050564;28;20079;-62
2022/02/20 02:07:53;;;;;;;8.55;3.00;;;;;;;;;;5044689;28;20124;-63
2022/02/20 02:10:19;;;;;;;4.65;2.63;;;;;;;;;;5051023;28;20434;-63
2022/02/20 02:12:45;;;;;;;5.53;2.80;;;;;;;;;;5046597;28;20044;-63
2022/02/20 02:15:12;;;;;;;5.30;2.70;;;;;;;;;;5045409;28;20044;-62
2022/02/20 02:17:38;;;;;;;7.05;2.85;;;;;;;;;;5050509;28;20041;-63
2022/02/20 02:20:06;;;;;;;4.95;2.55;;;;;;;;;;5047899;28;20037;-62
2022/02/20 02:22:33;;;;;;;5.65;2.60;;;;;;;;;;5048110;28;20049;-62
2022/02/20 02:25:00;;;;;;;7.20;2.22;;;;;;;;;;5048531;28;20041;-63
2022/02/20 02:27:27;;;;;;;6.38;2.22;;;;;;;;;;5048600;28;20493;-63
2022/02/20 02:29:55;;;;;;;8.35;2.25;;;;;;;;;;5046388;28;20053;-63
2022/02/20 02:32:21;;;;;;;5.25;2.55;;;;;;;;;;5046690;28;20219;-63
2022/02/20 02:34:48;;;;;;;6.25;2.10;;;;;;;;;;5072445;28;20041;-63
2022/02/20 02:37:15;;;;;;;5.22;2.67;;;;;;;;;;5037051;28;20566;-63
2022/02/20 02:39:42;;;;;;;5.68;2.38;;;;;;;;;;5038310;28;20048;-62
2022/02/20 02:42:09;;;;;;;6.53;2.55;;;;;;;;;;5043549;28;20049;-62
2022/02/20 02:44:35;;;;;;;9.55;2.38;;;;;;;;;;5047872;28;20102;-63
2022/02/20 02:47:02;;;;;;;5.65;2.70;;;;;;;;;;5049317;28;20044;-62
2022/02/20 02:49:28;;;;;;;6.90;2.72;;;;;;;;;;5050006;28;20041;-62
2022/02/20 02:51:54;;;;;;;5.40;2.78;;;;;;;;;;5047070;28;20033;-62
2022/02/20 02:54:22;;;;;;;6.88;2.90;;;;;;;;;;5046045;28;20454;-62
2022/02/20 02:56:49;;;;;;;7.72;2.53;;;;;;;;;;5041905;28;20048;-62
2022/02/20 02:59:15;;;;;;;7.40;2.83;;;;;;;;;;5082475;28;20037;-62
2022/02/20 03:01:42;;;;;;;8.55;2.58;;;;;;;;;;5050127;28;20032;-62
2022/02/20 03:04:09;;;;;;;6.57;2.80;;;;;;;;;;5047746;28;20079;-62
2022/02/20 03:06:35;;;;;;;8.68;3.70;;;;;;;;;;5050723;28;20037;-62
2022/02/20 03:09:01;;;;;;;7.60;2.97;;;;;;;;;;5049563;28;20049;-62
2022/02/20 03:11:27;;;;;;;7.40;3.10;;;;;;;;;;5044858;28;20047;-61
2022/02/20 03:13:53;;;;;;;7.95;3.00;;;;;;;;;;5046564;28;20132;-62
2022/02/20 03:16:19;;;;;;;7.68;3.03;;;;;;;;;;5050424;28;20373;-62
2022/02/20 03:18:46;;;;;;;9.85;2.92;;;;;;;;;;5048983;28;20464;-62
2022/02/20 03:21:12;;;;;;;10.27;2.97;;;;;;;;;;5051133;28;20048;-62
2022/02/20 03:23:38;;;;;;;9.35;3.15;;;;;;;;;;5046581;28;20041;-62
2022/02/20 03:26:04;;;;;;;9.50;3.40;;;;;;;;;;5046138;28;20037;-62
2022/02/20 03:28:30;;;;;;;9.43;3.42;;;;;;;;;;5049984;28;20127;-62
2022/02/20 03:30:56;;;;;;;9.40;3.58;;;;;;;;;;5050003;28;20420;-62
2022/02/20 03:33:24;;;;;;;11.88;3.10;;;;;;;;;;5046909;28;20085;-62
2022/02/20 03:35:50;;;;;;;10.55;3.25;;;;;;;;;;5049106;28;20472;-62
2022/02/20 03:38:16;;;;;;;10.50;3.75;;;;;;;;;;5048997;28;20128;-62
2022/02/20 03:40:42;;;;;;;9.95;4.00;;;;;;;;;;5045875;28;20037;-62
2022/02/20 03:43:09;;;;;;;11.68;4.30;;;;;;;;;;5042347;28;20052;-62
2022/02/20 03:45:35;;;;;;;7.93;3.63;;;;;;;;;;5040230;28;20094;-62
2022/02/20 03:48:01;;;;;;;9.98;4.05;;;;;;;;;;5043322;28;20400;-62
2022/02/20 03:50:27;;;;;;;12.50;4.30;;;;;;;;;;5049039;28;20106;-63
2022/02/20 03:52:53;;;;;;;13.35;4.43;;;;;;;;;;5047538;28;20120;-62
2022/02/20 03:55:20;;;;;;;12.48;3.97;;;;;;;;;;5047053;28;20053;-62
2022/02/20 03:57:46;;;;;;;16.80;4.07;;;;;;;;;;5050009;28;20124;-62
2022/02/20 04:00:14;;;;;;;9.75;3.20;;;;;;;;;;5047927;28;20493;-62
2022/02/20 04:02:41;;;;;;;9.32;3.38;;;;;;;;;;5029522;28;20084;-62
2022/02/20 04:05:08;;;;;;;9.85;3.33;;;;;;;;;;5045823;28;20043;-62
2022/02/20 04:07:34;;;;;;;8.48;3.42;;;;;;;;;;5045549;28;20132;-63
2022/02/20 04:10:01;;;;;;;11.60;3.33;;;;;;;;;;5046762;28;20117;-63
2022/02/20 04:12:27;;;;;;;12.13;3.25;;;;;;;;;;5047322;28;20045;-62
2022/02/20 04:14:53;;;;;;;11.85;3.70;;;;;;;;;;5046517;28;20033;-63
2022/02/20 04:17:20;;;;;;;10.93;2.90;;;;;;;;;;5049674;28;20041;-63
2022/02/20 04:19:47;;;;;;;8.98;3.45;;;;;;;;;;5048209;28;20045;-63
2022/02/20 04:22:14;;;;;;;18.33;3.90;;;;;;;;;;5046865;28;20082;-63
2022/02/20 04:24:40;;;;;;;13.43;3.90;;;;;;;;;;5044425;28;20430;-63
2022/02/20 04:27:06;;;;;;;8.80;3.50;;;;;;;;;;5049351;28;20116;-62
2022/02/20 04:29:32;;;;;;;11.40;4.40;;;;;;;;;;5048934;28;20076;-62
2022/02/20 04:31:59;;;;;;;10.00;3.65;;;;;;;;;;5047304;28;20139;-63
2022/02/20 04:34:25;;;;;;;15.77;4.15;;;;;;;;;;5047212;28;20045;-63
2022/02/20 04:36:51;;;;;;;9.40;3.63;;;;;;;;;;5049656;28;20044;-62
2022/02/20 04:39:17;;;;;;;9.60;4.00;;;;;;;;;;5047531;28;20048;-63
2022/02/20 04:41:43;;;;;;;8.43;4.00;;;;;;;;;;5046855;28;20040;-63
2022/02/20 04:44:09;;;;;;;11.27;4.18;;;;;;;;;;5048477;28;20037;-63
2022/02/20 04:46:36;;;;;;;11.07;3.55;;;;;;;;;;5047957;28;20081;-63
2022/02/20 04:49:04;;;;;;;9.02;3.75;;;;;;;;;;5045451;28;20835;-63
2022/02/20 04:51:30;;;;;;;8.35;3.63;;;;;;;;;;5045997;28;20064;-63
2022/02/20 04:53:56;;;;;;;14.85;3.80;;;;;;;;;;5051415;28;20053;-63
2022/02/20 04:56:22;;;;;;;12.68;2.97;;;;;;;;;;5052273;28;20400;-63
2022/02/20 04:58:49;;;;;;;11.45;3.30;;;;;;;;;;5046868;28;20128;-63
2022/02/20 05:01:15;;;;;;;7.82;2.83;;;;;;;;;;5050826;28;20422;-62
2022/02/20 05:03:41;;;;;;;8.68;2.70;;;;;;;;;;5049857;28;20146;-63
2022/02/20 05:06:07;;;;;;;7.47;2.55;;;;;;;;;;5049288;28;20049;-63
2022/02/20 05:08:33;;;;;;;7.68;2.50;;;;;;;;;;5053008;28;20147;-63
2022/02/20 05:11:00;;;;;;;8.48;2.88;;;;;;;;;;5054295;28;20561;-62
2022/02/20 05:13:26;;;;;;;10.57;3.17;;;;;;;;;;5051091;28;20484;-62
2022/02/20 05:15:52;;;;;;;6.22;2.80;;;;;;;;;;5048849;28;20120;-63
2022/02/20 05:18:18;;;;;;;6.13;2.58;;;;;;;;;;5047024;28;20037;-63
2022/02/20 05:20:46;;;;;;;9.77;2.55;;;;;;;;;;5050237;28;20224;-63
2022/02/20 05:23:12;;;;;;;7.30;2.83;;;;;;;;;;5049017;28;20054;-62
2022/02/20 05:25:38;;;;;;;9.30;3.47;;;;;;;;;;5050838;28;20045;-63
2022/02/20 05:28:04;;;;;;;11.15;3.40;;;;;;;;;;5051313;28;20045;-62
2022/02/20 05:30:31;;;;;;;6.47;2.88;;;;;;;;;;5048207;28;20048;-62
2022/02/20 05:32:57;;;;;;;11.80;3.60;;;;;;;;;;5049618;28;20041;-62
2022/02/20 05:35:23;;;;;;;8.77;3.13;;;;;;;;;;5048453;28;20040;-62
2022/02/20 05:37:50;;;;;;;11.40;3.03;;;;;;;;;;5051287;28;20041;-62
2022/02/20 05:40:17;;;;;;;15.88;3.20;;;;;;;;;;5048541;28;20175;-63
2022/02/20 05:42:43;;;;;;;7.03;3.20;;;;;;;;;;5050845;28;20070;-62
2022/02/20 05:45:10;;;;;;;12.45;3.63;;;;;;;;;;5050662;28;20045;-63
2022/02/20 05:47:36;;;;;;;12.93;4.50;;;;;;;;;;5052028;28;20181;-62
2022/02/20 05:50:03;;;;;;;8.82;3.20;;;;;;;;;;5047294;28;20043;-62
2022/02/20 05:52:30;;;;;;;10.70;3.67;;;;;;;;;;5032510;28;20496;-63
2022/02/20 05:54:56;;;;;;;15.40;3.90;;;;;;;;;;5050052;28;20095;-62
2022/02/20 05:57:23;;;;;;;12.00;4.65;;;;;;;;;;5047059;28;20138;-62
2022/02/20 05:59:49;;;;;;;9.52;3.25;;;;;;;;;;5045629;28;20132;-63
2022/02/20 06:02:16;;;;;;;9.70;3.58;;;;;;;;;;5042294;28;20049;-63
2022/02/20 06:04:42;;;;;;;10.40;3.03;;;;;;;;;;5044174;28;20052;-63
2022/02/20 06:07:10;;;;;;;12.88;2.80;;;;;;;;;;5053228;28;20045;-63
2022/02/20 06:09:36;;;;;;;6.97;2.25;;;;;;;;;;5048663;28;20049;-63
2022/02/20 06:12:03;;;;;;;17.10;4.20;;;;;;;;;;5051714;28;20044;-63
2022/02/20 06:14:29;;;;;;;13.20;3.40;;;;;;;;;;5051813;28;20119;-63
2022/02/20 06:16:55;;;;;;;13.30;3.30;;;;;;;;;;5051242;28;20044;-63
2022/02/20 06:19:21;;;;;;;9.18;3.45;;;;;;;;;;5047404;28;20045;-62
2022/02/20 06:21:48;;;;;;;9.40;4.25;;;;;;;;;;5052654;28;20044;-62
2022/02/20 06:24:14;;;;;;;11.20;5.25;;;;;;;;;;5048996;28;20064;-63
2022/02/20 06:26:40;;;;;;;11.30;5.38;;;;;;;;;;5064526;28;20389;-63
2022/02/20 06:29:06;;;;;;;13.40;5.88;;;;;;;;;;5049133;28;20462;-63
2022/02/20 06:31:32;;;;;;;11.88;5.00;;;;;;;;;;5053374;28;20419;-63
2022/02/20 06:33:58;;;;;;;22.60;6.53;;;;;;;;;;5047897;28;20044;-63
2022/02/20 06:36:25;;;;;;;17.40;6.45;;;;;;;;;;5052407;28;20048;-63
2022/02/20 06:38:51;;;;;;;14.30;6.43;;;;;;;;;;5049334;28;20485;-61
2022/02/20 06:41:17;;;;;;;18.92;6.75;;;;;;;;;;5048150;28;20475;-62
2022/02/20 06:43:43;;;;;;;18.85;7.38;;;;;;;;;;5050062;28;20120;-62
2022/02/20 06:46:09;;;;;;;17.02;7.88;;;;;;;;;;5048866;28;20120;-62
2022/02/20 06:48:35;;;;;;;17.98;8.00;;;;;;;;;;5047959;28;20044;-62
2022/02/20 06:51:01;;;;;;;15.38;7.47;;;;;;;;;;5043680;28;20044;-62
2022/02/20 06:53:28;;;;;;;23.83;8.73;;;;;;;;;;5048130;28;20353;-63
2022/02/20 06:55:54;;;;;;;17.45;7.28;;;;;;;;;;5046224;28;20134;-62
2022/02/20 06:58:20;;;;;;;19.50;7.15;;;;;;;;;;5044818;28;20476;-62
2022/02/20 07:00:47;;;;;;;23.48;7.72;;;;;;;;;;5042444;28;20069;-63
2022/02/20 07:03:13;;;;;;;18.33;7.97;;;;;;;;;;5044874;28;20165;-63
2022/02/20 07:05:41;;;;;;;23.45;7.85;;;;;;;;;;5042778;28;20045;-62
2022/02/20 07:08:08;;;;;;;17.33;8.50;;;;;;;;;;5050829;28;20044;-62
2022/02/20 07:10:34;;;;;;;21.25;8.85;;;;;;;;;;5047665;28;20131;-62
2022/02/20 07:13:00;;;;;;;16.00;8.85;;;;;;;;;;5044764;28;20045;-62
2022/02/20 07:15:27;;;;;;;24.77;9.15;;;;;;;;;;5047266;28;20450;-62
2022/02/20 07:17:53;;;;;;;26.73;10.70;;;;;;;;;;5046552;28;20539;-72
2022/02/20 07:20:19;;;;;;;25.33;10.32;;;;;;;;;;5048744;28;20052;-63
2022/02/20 07:22:46;;;;;;;26.35;10.10;;;;;;;;;;5046600;28;20129;-63
2022/02/20 07:25:12;;;;;;;23.70;10.80;;;;;;;;;;5047872;28;20045;-62
2022/02/20 07:27:39;;;;;;;25.10;11.60;;;;;;;;;;5048484;28;20063;-62
2022/02/20 07:30:06;;;;;;;26.75;13.20;;;;;;;;;;5046474;28;20041;-71
2022/02/20 07:32:32;;;;;;;28.38;12.25;;;;;;;;;;5044117;28;21820;-62
2022/02/20 07:34:58;;;;;;;29.30;14.52;;;;;;;;;;5047579;28;20047;-62
2022/02/20 07:37:28;;;;;;;33.72;13.05;;;;;;;;;;5049139;28;20032;-62
2022/02/20 07:39:54;;;;;;;33.92;14.38;;;;;;;;;;5046610;28;20048;-62
2022/02/20 07:42:20;;;;;;;33.72;15.43;;;;;;;;;;5047366;28;20346;-62
2022/02/20 07:44:47;;;;;;;38.42;14.35;;;;;;;;;;5048148;28;20433;-62
2022/02/20 07:47:13;;;;;;;36.47;15.35;;;;;;;;;;5047366;28;20555;-62
2022/02/20 07:49:39;;;;;;;41.72;19.08;;;;;;;;;;5046977;28;20074;-62
2022/02/20 07:52:05;;;;;;;37.85;16.70;;;;;;;;;;5046770;28;20041;-62
2022/02/20 07:54:32;;;;;;;42.42;17.52;;;;;;;;;;5049298;28;20048;-63
2022/02/20 07:56:58;;;;;;;43.97;18.20;;;;;;;;;;5050457;28;20389;-62
2022/02/20 07:59:25;;;;;;;48.60;19.58;;;;;;;;;;5048736;28;20041;-62
2022/02/20 08:01:52;;;;;;;42.72;17.88;;;;;;;;;;5043948;28;20124;-63
2022/02/20 08:04:18;;;;;;;45.00;19.50;;;;;;;;;;5044863;28;20056;-62
2022/02/20 08:06:44;;;;;;;47.70;20.55;;;;;;;;;;5045849;28;20044;-62
2022/02/20 08:09:11;;;;;;;58.25;22.83;;;;;;;;;;5043613;28;20077;-62
2022/02/20 08:11:37;;;;;;;51.58;22.15;;;;;;;;;;5049764;28;20048;-62
2022/02/20 08:14:05;;;;;;;55.55;22.15;;;;;;;;;;5047204;28;20049;-63
2022/02/20 08:16:32;;;;;;;50.60;21.73;;;;;;;;;;5044642;28;20048;-62
2022/02/20 08:18:58;;;;;;;52.65;21.60;;;;;;;;;;5048162;28;20569;-62
2022/02/20 08:21:24;;;;;;;65.43;25.40;;;;;;;;;;5046451;28;20072;-63
2022/02/20 08:23:50;;;;;;;61.55;24.20;;;;;;;;;;5045954;28;20067;-62
2022/02/20 08:26:17;;;;;;;57.63;23.88;;;;;;;;;;5050022;28;20045;-63
2022/02/20 08:28:44;;;;;;;65.30;25.23;;;;;;;;;;5050043;28;20094;-62
2022/02/20 08:31:10;;;;;;;60.53;24.63;;;;;;;;;;5053708;28;20355;-62
2022/02/20 08:33:37;;;;;;;61.88;24.65;;;;;;;;;;5046726;28;20148;-64
2022/02/20 08:36:03;;;;;;;54.03;22.15;;;;;;;;;;5049905;28;20114;-63
2022/02/20 08:38:29;;;;;;;62.85;25.30;;;;;;;;;;5051855;28;20485;-62
2022/02/20 08:40:55;;;;;;;71.88;24.23;;;;;;;;;;5046876;28;20033;-62
2022/02/20 08:43:21;;;;;;;54.10;21.45;;;;;;;;;;5051166;28;20044;-62
2022/02/20 08:45:48;;;;;;;59.10;21.52;;;;;;;;;;5050994;28;20045;-66
2022/02/20 08:48:14;;;;;;;48.90;19.95;;;;;;;;;;5044470;28;20073;-64
2022/02/20 08:50:42;;;;;;;54.38;20.05;;;;;;;;;;5048678;28;20369;-64
2022/02/20 08:53:08;;;;;;;59.58;18.77;;;;;;;;;;5050008;28;20041;-63
2022/02/20 08:55:35;;;;;;;50.45;18.00;;;;;;;;;;5049125;28;20053;-63
2022/02/20 08:58:01;;;;;;;55.95;17.40;;;;;;;;;;5047357;28;20111;-63
2022/02/20 09:00:27;;;;;;;62.03;15.18;;;;;;;;;;5049828;28;20064;-64
2022/02/20 09:02:53;;;;;;;63.78;15.93;;;;;;;;;;5048549;28;20045;-64
2022/02/20 09:05:19;;;;;;;52.25;12.05;;;;;;;;;;5049314;28;20045;-64
2022/02/20 09:07:45;;;;;;;56.25;10.65;;;;;;;;;;5047586;28;20475;-66
2022/02/20 09:10:12;;;;;;;51.72;10.13;;;;;;;;;;5049646;28;20071;-61
2022/02/20 09:12:38;;;;;;;54.50;9.63;;;;;;;;;;5050699;28;20116;-62
2022/02/20 09:15:05;;;;;;;57.35;9.30;;;;;;;;;;5065781;28;20048;-61
2022/02/20 09:17:32;;;;;;;51.10;9.23;;;;;;;;;;5051635;28;20060;-66
2022/02/20 09:19:59;;;;;;;55.42;9.25;;;;;;;;;;5055339;28;20056;-63
2022/02/20 09:22:25;;;;;;;56.80;10.45;;;;;;;;;;5054912;28;20050;-63
2022/02/20 09:24:51;;;;;;;57.38;9.57;;;;;;;;;;5054253;28;20494;-63
2022/02/20 09:27:17;;;;;;;60.30;9.35;;;;;;;;;;5048330;28;20044;-63
2022/02/20 09:29:43;;;;;;;61.30;8.38;;;;;;;;;;5053066;28;20492;-63
2022/02/20 09:32:10;;;;;;;58.65;10.30;;;;;;;;;;5051013;28;20397;-63
2022/02/20 09:34:36;;;;;;;55.75;8.90;;;;;;;;;;5049076;28;20521;-63
2022/02/20 09:37:03;;;;;;;51.80;9.85;;;;;;;;;;5052694;28;20060;-63
2022/02/20 09:39:29;;;;;;;64.82;10.18;;;;;;;;;;5042100;28;20052;-64
2022/02/20 09:41:58;;;;;;;62.75;8.98;;;;;;;;;;5051485;28;20040;-64
2022/02/20 09:44:24;;;;;;;64.65;9.13;;;;;;;;;;5049432;28;20053;-64
2022/02/20 09:46:50;;;;;;;66.15;10.45;;;;;;;;;;5077185;28;20048;-64
2022/02/20 09:49:16;;;;;;;74.45;11.45;;;;;;;;;;5049560;28;20077;-64
2022/02/20 09:51:43;;;;;;;79.85;10.02;;;;;;;;;;5045701;28;20089;-63
2022/02/20 09:54:09;;;;;;;66.40;9.45;;;;;;;;;;5057643;28;20524;-64
2022/02/20 09:56:38;;;;;;;54.40;9.05;;;;;;;;;;5083355;28;20052;-64
2022/02/20 09:59:04;;;;;;;57.55;7.97;;;;;;;;;;5062634;28;20060;-64
2022/02/20 10:01:30;;;;;;;68.68;8.65;;;;;;;;;;5056526;28;20044;-64
2022/02/20 10:03:56;;;;;;;66.45;12.23;;;;;;;;;;5053968;28;20049;-64
2022/02/20 10:06:26;;;;;;;62.38;8.52;;;;;;;;;;5058832;28;20426;-64
2022/02/20 10:08:55;;;;;;;66.18;10.77;;;;;;;;;;5047591;28;20457;-63
2022/02/20 10:11:24;;;;;;;64.32;11.52;;;;;;;;;;5046702;28;20149;-64
2022/02/20 10:13:52;;;;;;;58.95;8.70;;;;;;;;;;5044871;28;20152;-64
2022/02/20 10:16:21;;;;;;;61.03;9.68;;;;;;;;;;5049295;28;20037;-64
2022/02/20 10:18:48;;;;;;;66.93;12.25;;;;;;;;;;5045135;28;20124;-64
2022/02/20 10:21:21;;;;;;;68.10;10.65;;;;;;;;;;5050352;28;20071;-64
2022/02/20 10:23:48;;;;;;;75.90;10.05;;;;;;;;;;5048029;28;20033;-64
2022/02/20 10:26:16;;;;;;;49.90;9.43;;;;;;;;;;5046389;28;20497;-64
2022/02/20 10:28:59;;;;;;;50.13;8.98;;;;;;;;;;5049508;28;20086;-64
2022/02/20 10:31:41;;;;;;;53.40;9.55;;;;;;;;;;5053628;28;20037;-64
2022/02/20 10:34:08;;;;;;;59.28;10.25;;;;;;;;;;5062687;28;20094;-64
2022/02/20 10:36:48;;;;;;;61.63;11.13;;;;;;;;;;5060671;28;20393;-64
2022/02/20 10:39:24;;;;;;;61.90;10.10;;;;;;;;;;5053470;28;20066;-64
2022/02/20 10:41:51;;;;;;;64.45;9.40;;;;;;;;;;5046238;28;20107;-63
2022/02/20 10:44:17;;;;;;;68.05;10.50;;;;;;;;;;5051843;28;20071;-64
2022/02/20 10:46:44;;;;;;;72.90;10.07;;;;;;;;;;5052908;28;20047;-64
2022/02/20 10:49:22;;;;;;;65.88;10.45;;;;;;;;;;5053347;28;20047;-64
2022/02/20 10:51:48;;;;;;;73.20;10.73;;;;;;;;;;5052693;28;20102;-64
2022/02/20 10:54:14;;;;;;;61.88;11.02;;;;;;;;;;5056108;28;20056;-64
2022/02/20 10:56:42;;;;;;;55.60;9.98;;;;;;;;;;5040336;28;20049;-64
2022/02/20 10:59:08;;;;;;;91.00;10.75;;;;;;;;;;5056418;28;20127;-64
2022/02/20 11:01:35;;;;;;;64.95;9.77;;;;;;;;;;5054211;28;20381;-64
2022/02/20 11:04:05;;;;;;;76.20;10.90;;;;;;;;;;5053760;28;20045;-65
2022/02/20 11:06:32;;;;;;;74.65;12.15;;;;;;;;;;5059536;28;20120;-64
2022/02/20 11:08:58;;;;;;;63.22;9.95;;;;;;;;;;5073575;28;20053;-64
2022/02/20 11:11:37;;;;;;;67.43;10.35;;;;;;;;;;5058183;28;20119;-64
2022/02/20 11:14:05;;;;;;;79.60;9.98;;;;;;;;;;5047428;28;20512;-64
2022/02/20 11:16:31;;;;;;;68.10;10.55;;;;;;;;;;5047715;28;20044;-64
2022/02/20 11:18:59;;;;;;;69.05;10.18;;;;;;;;;;5077115;28;20084;-64
2022/02/20 11:21:26;;;;;;;68.05;9.52;;;;;;;;;;5046745;28;20037;-64
2022/02/20 11:23:56;;;;;;;75.45;11.75;;;;;;;;;;5075635;28;20081;-63
2022/02/20 11:26:22;;;;;;;69.28;9.00;;;;;;;;;;5050664;28;20067;-63
2022/02/20 11:28:49;;;;;;;71.22;11.13;;;;;;;;;;5044864;28;20051;-63
2022/02/20 11:31:19;;;;;;;57.83;10.13;;;;;;;;;;5040587;28;20079;-64
2022/02/20 11:33:51;;;;;;;62.72;10.80;;;;;;;;;;5043539;28;20041;-67
2022/02/20 11:36:19;;;;;;;66.85;10.50;;;;;;;;;;5047607;28;20181;-64
2022/02/20 11:39:02;;;;;;;78.43;12.57;;;;;;;;;;5062689;28;20581;-64
2022/02/20 11:41:28;;;;;;;71.47;10.77;;;;;;;;;;5059308;28;20064;-64
2022/02/20 11:43:56;;;;;;;78.70;11.18;;;;;;;;;;5062984;28;20329;-64
2022/02/20 11:46:25;;;;;;;79.30;11.02;;;;;;;;;;5053854;28;20047;-64
2022/02/20 11:49:04;;;;;;;72.45;11.10;;;;;;;;;;5062197;28;20044;-64
2022/02/20 11:51:31;;;;;;;69.45;10.70;;;;;;;;;;5059942;28;20041;-64
2022/02/20 11:54:16;;;;;;;89.93;11.13;;;;;;;;;;5058106;28;20049;-64
2022/02/20 11:56:44;;;;;;;88.20;12.60;;;;;;;;;;5060721;28;20500;-64
2022/02/20 11:59:15;;;;;;;75.88;13.10;;;;;;;;;;5070403;28;20045;-64
2022/02/20 12:02:01;;;;;;;107.55;12.77;;;;;;;;;;5043573;28;20063;-64
2022/02/20 12:04:47;;;;;;;83.60;13.35;;;;;;;;;;5048315;28;20049;-64
2022/02/20 12:07:32;;;;;;;72.20;10.68;;;;;;;;;;5076803;28;20077;-64
2022/02/20 12:10:20;;;;;;;86.13;15.25;;;;;;;;;;5049562;28;20045;-64
2022/02/20 12:12:48;;;;;;;82.80;13.35;;;;;;;;;;5048145;28;20049;-64
2022/02/20 12:15:34;;;;;;;91.70;13.88;;;;;;;;;;5045845;28;20447;-65
2022/02/20 12:18:03;;;;;;;87.05;13.00;;;;;;;;;;5058276;28;20108;-64
2022/02/20 12:20:47;;;;;;;95.20;12.55;;;;;;;;;;5061263;28;20127;-64
2022/02/20 12:23:13;;;;;;;;;;;;;;;;;;5049439;28;20037;-64
2022/02/20 12:25:39;;;;;;;84.25;12.60;;;;;;;;;;5060572;28;19935;-64
2022/02/20 12:28:09;;;;;;;87.93;12.75;;;;;;;;;;5057811;28;20053;-63
2022/02/20 12:30:36;;;;;;;80.28;13.15;;;;;;;;;;5055352;28;20045;-64
2022/02/20 12:33:02;;;;;;;88.05;15.05;;;;;;;;;;5056664;28;20041;-64
2022/02/20 12:35:28;;;;;;;79.07;14.10;;;;;;;;;;5054861;28;20080;-64
2022/02/20 12:37:55;;;;;;;93.00;14.15;;;;;;;;;;5041644;28;20117;-63
2022/02/20 12:40:24;;;;;;;83.55;13.82;;;;;;;;;;5038732;28;20041;-63
2022/02/20 12:42:55;;;;;;;81.65;14.65;;;;;;;;;;5042505;28;20093;-63
2022/02/20 12:45:25;;;;;;;82.32;14.80;;;;;;;;;;5038791;28;20067;-64
2022/02/20 12:47:53;;;;;;;89.68;12.85;;;;;;;;;;5039637;28;20534;-64
2022/02/20 12:50:21;;;;;;;85.05;13.48;;;;;;;;;;5069270;28;20045;-64
2022/02/20 12:52:47;;;;;;;71.10;13.82;;;;;;;;;;5038105;28;20513;-63
2022/02/20 12:55:17;;;;;;;68.65;12.18;;;;;;;;;;5039622;28;20057;-63
2022/02/20 12:57:44;;;;;;;79.75;12.77;;;;;;;;;;5040144;28;21323;-63
2022/02/20 13:00:11;;;;;;;91.72;13.48;;;;;;;;;;5038377;28;20543;-63
2022/02/20 13:02:39;;;;;;;78.32;13.23;;;;;;;;;;5038773;28;20068;-64
2022/02/20 13:05:06;;;;;;;65.53;10.82;;;;;;;;;;5041530;28;20385;-63
2022/02/20 13:07:37;;;;;;;85.18;11.02;;;;;;;;;;5042843;28;20071;-63
2022/02/20 13:10:04;;;;;;;106.13;14.95;;;;;;;;;;5045374;28;20037;-63
2022/02/20 13:12:31;;;;;;;88.45;13.82;;;;;;;;;;5047720;28;20041;-63
2022/02/20 13:14:58;;;;;;;69.13;11.07;;;;;;;;;;5046691;28;20056;-63
2022/02/20 13:17:41;;;;;;;73.82;12.75;;;;;;;;;;5048479;28;20065;-64
2022/02/20 13:20:25;;;;;;;85.55;16.35;;;;;;;;;;5047717;28;20123;-63
2022/02/20 13:22:51;;;;;;;86.75;14.13;;;;;;;;;;5049434;28;20045;-64
2022/02/20 13:25:18;;;;;;;88.03;11.73;;;;;;;;;;5048573;28;20057;-64
2022/02/20 13:27:45;;;;;;;80.43;14.20;;;;;;;;;;5043691;28;20052;-63
2022/02/20 13:30:11;;;;;;;78.47;13.73;;;;;;;;;;5076721;28;20053;-63
2022/02/20 13:32:38;;;;;;;87.40;12.45;;;;;;;;;;5045904;28;20041;-63
2022/02/20 13:35:04;;;;;;;66.88;11.88;;;;;;;;;;5043414;28;20076;-63
2022/02/20 13:37:31;;;;;;;89.72;13.88;;;;;;;;;;5049872;28;20041;-63
2022/02/20 13:39:57;;;;;;;78.85;11.05;;;;;;;;;;5047107;28;20049;-63
2022/02/20 13:42:24;;;;;;;87.60;11.65;;;;;;;;;;5049038;28;20040;-63
2022/02/20 13:44:50;;;;;;;84.47;13.30;;;;;;;;;;5049405;28;20090;-63
2022/02/20 13:47:18;;;;;;;81.60;13.48;;;;;;;;;;5048585;28;20045;-63
2022/02/20 13:49:45;;;;;;;79.45;12.68;;;;;;;;;;5046181;28;20369;-63
2022/02/20 13:52:11;;;;;;;92.97;13.15;;;;;;;;;;5048512;28;20045;-63
2022/02/20 13:54:37;;;;;;;81.22;12.10;;;;;;;;;;5048722;28;20056;-63
2022/02/20 13:57:04;;;;;;;81.47;14.60;;;;;;;;;;5047541;28;20844;-64
2022/02/20 13:59:36;;;;;;;84.25;11.85;;;;;;;;;;5046705;28;20477;-75
2022/02/20 14:02:04;;;;;;;78.57;12.57;;;;;;;;;;5045755;28;20164;-66
2022/02/20 14:04:32;;;;;;;90.82;15.38;;;;;;;;;;5045434;28;20830;-65
2022/02/20 14:07:01;;;;;;;77.10;12.30;;;;;;;;;;5046304;28;20421;-65
2022/02/20 14:09:28;;;;;;;73.00;10.77;;;;;;;;;;5047879;28;20049;-66
2022/02/20 14:12:14;;;;;;;64.18;12.88;;;;;;;;;;5070141;28;20041;-66
2022/02/20 14:14:55;;;;;;;76.88;12.55;;;;;;;;;;5044559;28;20107;-65
2022/02/20 14:17:22;;;;;;;65.15;11.10;;;;;;;;;;5044029;28;20049;-65
2022/02/20 14:19:48;;;;;;;79.78;12.70;;;;;;;;;;5042641;28;20041;-66
2022/02/20 14:22:14;;;;;;;74.05;12.32;;;;;;;;;;5078183;28;20057;-66
2022/02/20 14:24:44;;;;;;;63.78;10.55;;;;;;;;;;5045971;28;20140;-65
2022/02/20 14:27:10;;;;;;;79.80;11.90;;;;;;;;;;5050107;28;20048;-65
2022/02/20 14:29:36;;;;;;;84.82;12.20;;;;;;;;;;5045666;28;20037;-65